sensor_id;sensor_type;location;lat;lon;timestamp;pressure;altitude;pressure_sealevel;temperature;humidity
51067;BME280;37112;45.892;-123.962;2023-02-28T00:01:46;99431.52;;;6.29;77.53
51067;BME280;37112;45.892;-123.962;2023-02-28T00:04:00;99432.65;;;6.33;77.73
51067;BME280;37112;45.892;-123.962;2023-02-28T00:06:13;99426.14;;;6.37;77.92
51067;BME280;37112;45.892;-123.962;2023-02-28T00:08:27;99418.97;;;6.39;77.67
51067;BME280;37112;45.892;-123.962;2023-02-28T00:10:40;99419.73;;;6.36;77.26
51067;BME280;37112;45.892;-123.962;2023-02-28T00:12:54;99408.44;;;6.34;77.23
51067;BME280;37112;45.892;-123.962;2023-02-28T00:15:11;99407.42;;;6.31;77.28
51067;BME280;37112;45.892;-123.962;2023-02-28T00:17:25;99402.91;;;6.27;77.14
51067;BME280;37112;45.892;-123.962;2023-02-28T00:19:38;99405.18;;;6.25;77.49
51067;BME280;37112;45.892;-123.962;2023-02-28T00:21:51;99399.42;;;6.29;78.13
51067;BME280;37112;45.892;-123.962;2023-02-28T00:24:06;99398.26;;;6.35;78.64
51067;BME280;37112;45.892;-123.962;2023-02-28T00:26:20;99400.48;;;6.44;79.07
51067;BME280;37112;45.892;-123.962;2023-02-28T00:28:34;99402.81;;;6.51;79.22
51067;BME280;37112;45.892;-123.962;2023-02-28T00:30:47;99394.89;;;6.55;79.11
51067;BME280;37112;45.892;-123.962;2023-02-28T00:33:01;99393.23;;;6.59;79.29
51067;BME280;37112;45.892;-123.962;2023-02-28T00:35:15;99384.70;;;6.62;79.10
51067;BME280;37112;45.892;-123.962;2023-02-28T00:37:28;99383.08;;;6.63;79.10
51067;BME280;37112;45.892;-123.962;2023-02-28T00:39:42;99375.17;;;6.69;79.51
51067;BME280;37112;45.892;-123.962;2023-02-28T00:41:57;99376.90;;;6.80;79.92
51067;BME280;37112;45.892;-123.962;2023-02-28T00:44:11;99375.81;;;6.87;79.76
51067;BME280;37112;45.892;-123.962;2023-02-28T00:46:25;99377.20;;;6.92;79.93
51067;BME280;37112;45.892;-123.962;2023-02-28T00:48:40;99381.02;;;6.95;79.43
51067;BME280;37112;45.892;-123.962;2023-02-28T00:50:53;99378.11;;;6.99;79.47
51067;BME280;37112;45.892;-123.962;2023-02-28T00:53:06;99376.61;;;7.00;79.42
51067;BME280;37112;45.892;-123.962;2023-02-28T00:55:20;99377.83;;;6.98;79.15
51067;BME280;37112;45.892;-123.962;2023-02-28T00:57:33;99377.76;;;6.99;79.24
51067;BME280;37112;45.892;-123.962;2023-02-28T00:59:46;99376.05;;;6.98;79.14
51067;BME280;37112;45.892;-123.962;2023-02-28T01:02:00;99380.05;;;6.94;78.83
51067;BME280;37112;45.892;-123.962;2023-02-28T01:04:13;99379.16;;;6.92;78.80
51067;BME280;37112;45.892;-123.962;2023-02-28T01:06:27;99378.77;;;6.90;78.91
51067;BME280;37112;45.892;-123.962;2023-02-28T01:08:40;99377.85;;;6.86;78.52
51067;BME280;37112;45.892;-123.962;2023-02-28T01:10:53;99378.23;;;6.78;78.07
51067;BME280;37112;45.892;-123.962;2023-02-28T01:13:06;99373.77;;;6.67;77.80
51067;BME280;37112;45.892;-123.962;2023-02-28T01:15:21;99375.62;;;6.59;77.80
51067;BME280;37112;45.892;-123.962;2023-02-28T01:17:37;99372.77;;;6.52;77.63
51067;BME280;37112;45.892;-123.962;2023-02-28T01:19:50;99367.23;;;6.40;77.30
51067;BME280;37112;45.892;-123.962;2023-02-28T01:22:07;99368.46;;;6.30;77.41
51067;BME280;37112;45.892;-123.962;2023-02-28T01:24:20;99367.11;;;6.25;77.42
51067;BME280;37112;45.892;-123.962;2023-02-28T01:26:34;99362.90;;;6.20;77.47
51067;BME280;37112;45.892;-123.962;2023-02-28T01:28:49;99360.71;;;6.16;77.55
51067;BME280;37112;45.892;-123.962;2023-02-28T01:31:03;99351.09;;;6.12;77.45
51067;BME280;37112;45.892;-123.962;2023-02-28T01:33:20;99350.70;;;6.08;77.32
51067;BME280;37112;45.892;-123.962;2023-02-28T01:35:37;99347.63;;;6.02;77.17
51067;BME280;37112;45.892;-123.962;2023-02-28T01:37:50;99346.00;;;5.97;77.41
51067;BME280;37112;45.892;-123.962;2023-02-28T01:40:04;99342.10;;;5.93;77.39
51067;BME280;37112;45.892;-123.962;2023-02-28T01:42:17;99348.11;;;5.89;77.35
51067;BME280;37112;45.892;-123.962;2023-02-28T01:45:06;99347.30;;;5.83;77.07
51067;BME280;37112;45.892;-123.962;2023-02-28T01:47:24;99345.05;;;5.75;77.06
51067;BME280;37112;45.892;-123.962;2023-02-28T01:49:38;99344.89;;;5.72;77.43
51067;BME280;37112;45.892;-123.962;2023-02-28T01:51:55;99345.55;;;5.70;77.44
51067;BME280;37112;45.892;-123.962;2023-02-28T01:54:14;99343.08;;;5.68;77.42
51067;BME280;37112;45.892;-123.962;2023-02-28T01:56:32;99347.47;;;5.66;77.45
51067;BME280;37112;45.892;-123.962;2023-02-28T01:58:48;99342.06;;;5.65;77.49
51067;BME280;37112;45.892;-123.962;2023-02-28T02:01:05;99343.77;;;5.63;77.43
51067;BME280;37112;45.892;-123.962;2023-02-28T02:03:22;99339.56;;;5.60;77.45
51067;BME280;37112;45.892;-123.962;2023-02-28T02:05:36;99341.39;;;5.59;77.49
51067;BME280;37112;45.892;-123.962;2023-02-28T02:07:54;99344.77;;;5.56;77.42
51067;BME280;37112;45.892;-123.962;2023-02-28T02:10:17;99341.42;;;5.54;77.44
51067;BME280;37112;45.892;-123.962;2023-02-28T02:12:41;99341.14;;;5.53;77.61
51067;BME280;37112;45.892;-123.962;2023-02-28T02:15:05;99341.98;;;5.50;77.53
51067;BME280;37112;45.892;-123.962;2023-02-28T02:17:28;99338.33;;;5.47;77.77
51067;BME280;37112;45.892;-123.962;2023-02-28T02:20:22;99341.60;;;5.43;77.80
51067;BME280;37112;45.892;-123.962;2023-02-28T02:25:28;99349.55;;;5.30;77.90
51067;BME280;37112;45.892;-123.962;2023-02-28T02:28:01;99349.90;;;5.27;78.25
51067;BME280;37112;45.892;-123.962;2023-02-28T02:33:28;99348.76;;;5.18;78.36
51067;BME280;37112;45.892;-123.962;2023-02-28T02:35:56;99348.59;;;5.15;78.41
51067;BME280;37112;45.892;-123.962;2023-02-28T02:38:16;99350.05;;;5.15;78.46
51067;BME280;37112;45.892;-123.962;2023-02-28T02:40:38;99352.41;;;5.13;78.58
51067;BME280;37112;45.892;-123.962;2023-02-28T02:42:54;99354.80;;;5.15;78.63
51067;BME280;37112;45.892;-123.962;2023-02-28T02:45:12;99350.80;;;5.14;78.74
51067;BME280;37112;45.892;-123.962;2023-02-28T02:47:30;99346.75;;;5.14;78.66
51067;BME280;37112;45.892;-123.962;2023-02-28T02:49:49;99343.27;;;5.13;78.76
51067;BME280;37112;45.892;-123.962;2023-02-28T02:52:07;99346.88;;;5.12;78.95
51067;BME280;37112;45.892;-123.962;2023-02-28T02:54:24;99345.66;;;5.09;78.86
51067;BME280;37112;45.892;-123.962;2023-02-28T02:56:42;99342.68;;;5.07;78.89
51067;BME280;37112;45.892;-123.962;2023-02-28T02:59:00;99346.52;;;5.04;78.95
51067;BME280;37112;45.892;-123.962;2023-02-28T03:01:18;99348.15;;;5.01;78.79
51067;BME280;37112;45.892;-123.962;2023-02-28T03:03:39;99343.97;;;4.95;78.93
51067;BME280;37112;45.892;-123.962;2023-02-28T03:05:55;99346.39;;;4.93;79.07
51067;BME280;37112;45.892;-123.962;2023-02-28T03:08:11;99350.02;;;4.91;79.05
51067;BME280;37112;45.892;-123.962;2023-02-28T03:10:37;99353.77;;;4.91;79.30
51067;BME280;37112;45.892;-123.962;2023-02-28T03:13:00;99356.70;;;4.92;79.71
51067;BME280;37112;45.892;-123.962;2023-02-28T03:15:23;99356.11;;;4.92;79.96
51067;BME280;37112;45.892;-123.962;2023-02-28T03:17:56;99360.39;;;4.94;80.07
51067;BME280;37112;45.892;-123.962;2023-02-28T03:20:29;99361.70;;;4.95;80.09
51067;BME280;37112;45.892;-123.962;2023-02-28T03:22:54;99365.71;;;4.96;80.45
51067;BME280;37112;45.892;-123.962;2023-02-28T03:25:16;99368.41;;;4.92;80.67
51067;BME280;37112;45.892;-123.962;2023-02-28T03:27:34;99366.40;;;4.88;80.52
51067;BME280;37112;45.892;-123.962;2023-02-28T03:29:53;99365.75;;;4.85;80.47
51067;BME280;37112;45.892;-123.962;2023-02-28T03:32:21;99365.14;;;4.81;80.50
51067;BME280;37112;45.892;-123.962;2023-02-28T03:34:43;99359.48;;;4.76;80.56
51067;BME280;37112;45.892;-123.962;2023-02-28T03:37:04;99354.66;;;4.71;80.59
51067;BME280;37112;45.892;-123.962;2023-02-28T03:39:22;99354.51;;;4.68;80.67
51067;BME280;37112;45.892;-123.962;2023-02-28T03:41:42;99355.65;;;4.67;80.68
51067;BME280;37112;45.892;-123.962;2023-02-28T03:44:02;99353.10;;;4.65;80.81
51067;BME280;37112;45.892;-123.962;2023-02-28T03:46:20;99351.48;;;4.64;80.97
51067;BME280;37112;45.892;-123.962;2023-02-28T03:48:38;99341.30;;;4.63;80.95
51067;BME280;37112;45.892;-123.962;2023-02-28T03:50:57;99344.20;;;4.62;81.12
51067;BME280;37112;45.892;-123.962;2023-02-28T03:53:14;99342.09;;;4.59;81.14
51067;BME280;37112;45.892;-123.962;2023-02-28T03:55:32;99345.20;;;4.57;81.23
51067;BME280;37112;45.892;-123.962;2023-02-28T03:57:56;99356.49;;;4.54;81.43
51067;BME280;37112;45.892;-123.962;2023-02-28T04:00:17;99350.20;;;4.54;81.57
51067;BME280;37112;45.892;-123.962;2023-02-28T04:02:33;99340.81;;;4.52;81.69
51067;BME280;37112;45.892;-123.962;2023-02-28T04:04:48;99344.53;;;4.52;82.01
51067;BME280;37112;45.892;-123.962;2023-02-28T04:07:08;99347.80;;;4.53;83.15
51067;BME280;37112;45.892;-123.962;2023-02-28T04:09:27;99350.12;;;4.55;83.34
51067;BME280;37112;45.892;-123.962;2023-02-28T04:11:43;99349.21;;;4.53;83.01
51067;BME280;37112;45.892;-123.962;2023-02-28T04:13:57;99349.31;;;4.51;82.92
51067;BME280;37112;45.892;-123.962;2023-02-28T04:16:12;99350.29;;;4.52;83.25
51067;BME280;37112;45.892;-123.962;2023-02-28T04:18:43;99350.75;;;4.53;83.34
51067;BME280;37112;45.892;-123.962;2023-02-28T04:21:03;99357.14;;;4.55;83.68
51067;BME280;37112;45.892;-123.962;2023-02-28T04:23:16;99359.09;;;4.57;83.98
51067;BME280;37112;45.892;-123.962;2023-02-28T04:25:30;99357.40;;;4.59;84.26
51067;BME280;37112;45.892;-123.962;2023-02-28T04:27:45;99358.00;;;4.61;84.28
51067;BME280;37112;45.892;-123.962;2023-02-28T04:30:00;99359.44;;;4.63;84.50
51067;BME280;37112;45.892;-123.962;2023-02-28T04:32:14;99361.02;;;4.65;84.60
51067;BME280;37112;45.892;-123.962;2023-02-28T04:34:30;99366.10;;;4.66;84.66
51067;BME280;37112;45.892;-123.962;2023-02-28T04:36:44;99365.98;;;4.65;84.41
51067;BME280;37112;45.892;-123.962;2023-02-28T04:39:20;99367.17;;;4.65;84.55
51067;BME280;37112;45.892;-123.962;2023-02-28T04:41:34;99367.49;;;4.66;84.61
51067;BME280;37112;45.892;-123.962;2023-02-28T04:43:49;99368.55;;;4.66;84.86
51067;BME280;37112;45.892;-123.962;2023-02-28T04:46:05;99370.52;;;4.68;85.09
51067;BME280;37112;45.892;-123.962;2023-02-28T04:48:20;99368.81;;;4.70;84.85
51067;BME280;37112;45.892;-123.962;2023-02-28T04:50:35;99374.38;;;4.71;84.90
51067;BME280;37112;45.892;-123.962;2023-02-28T04:52:50;99378.03;;;4.72;84.82
51067;BME280;37112;45.892;-123.962;2023-02-28T04:55:05;99378.39;;;4.71;84.69
51067;BME280;37112;45.892;-123.962;2023-02-28T04:57:19;99380.25;;;4.72;84.72
51067;BME280;37112;45.892;-123.962;2023-02-28T04:59:32;99381.81;;;4.73;84.73
51067;BME280;37112;45.892;-123.962;2023-02-28T05:01:48;99389.08;;;4.75;84.78
51067;BME280;37112;45.892;-123.962;2023-02-28T05:04:04;99393.54;;;4.77;84.93
51067;BME280;37112;45.892;-123.962;2023-02-28T05:06:18;99395.36;;;4.78;85.00
51067;BME280;37112;45.892;-123.962;2023-02-28T05:08:32;99395.61;;;4.80;85.12
51067;BME280;37112;45.892;-123.962;2023-02-28T05:10:47;99399.49;;;4.82;85.10
51067;BME280;37112;45.892;-123.962;2023-02-28T05:13:00;99396.67;;;4.85;85.23
51067;BME280;37112;45.892;-123.962;2023-02-28T05:15:15;99400.05;;;4.88;85.40
51067;BME280;37112;45.892;-123.962;2023-02-28T05:17:30;99398.78;;;4.91;85.64
51067;BME280;37112;45.892;-123.962;2023-02-28T05:19:45;99401.98;;;4.93;85.57
51067;BME280;37112;45.892;-123.962;2023-02-28T05:22:02;99406.96;;;4.95;85.69
51067;BME280;37112;45.892;-123.962;2023-02-28T05:24:16;99402.81;;;4.96;85.62
51067;BME280;37112;45.892;-123.962;2023-02-28T05:26:38;99398.41;;;4.96;85.40
51067;BME280;37112;45.892;-123.962;2023-02-28T05:28:53;99399.63;;;4.96;85.33
51067;BME280;37112;45.892;-123.962;2023-02-28T05:31:07;99396.44;;;4.96;85.12
51067;BME280;37112;45.892;-123.962;2023-02-28T05:33:23;99393.77;;;4.97;85.23
51067;BME280;37112;45.892;-123.962;2023-02-28T05:35:40;99391.52;;;5.00;85.34
51067;BME280;37112;45.892;-123.962;2023-02-28T05:37:54;99390.10;;;5.02;85.51
51067;BME280;37112;45.892;-123.962;2023-02-28T05:40:13;99392.56;;;5.05;85.78
51067;BME280;37112;45.892;-123.962;2023-02-28T05:42:27;99396.67;;;5.07;85.98
51067;BME280;37112;45.892;-123.962;2023-02-28T05:44:40;99395.59;;;5.07;86.60
51067;BME280;37112;45.892;-123.962;2023-02-28T05:46:56;99402.14;;;5.09;86.22
51067;BME280;37112;45.892;-123.962;2023-02-28T05:49:09;99404.96;;;5.07;85.98
51067;BME280;37112;45.892;-123.962;2023-02-28T05:51:23;99406.90;;;5.07;86.31
51067;BME280;37112;45.892;-123.962;2023-02-28T05:53:37;99406.00;;;5.07;86.41
51067;BME280;37112;45.892;-123.962;2023-02-28T05:55:51;99402.52;;;5.07;86.37
51067;BME280;37112;45.892;-123.962;2023-02-28T05:58:05;99403.00;;;5.07;86.94
51067;BME280;37112;45.892;-123.962;2023-02-28T06:00:20;99409.97;;;5.11;87.38
51067;BME280;37112;45.892;-123.962;2023-02-28T06:02:33;99414.02;;;5.16;88.15
51067;BME280;37112;45.892;-123.962;2023-02-28T06:04:47;99419.81;;;5.19;88.15
51067;BME280;37112;45.892;-123.962;2023-02-28T06:07:01;99418.56;;;5.24;88.32
51067;BME280;37112;45.892;-123.962;2023-02-28T06:09:15;99422.68;;;5.28;88.10
51067;BME280;37112;45.892;-123.962;2023-02-28T06:11:29;99423.64;;;5.30;87.93
51067;BME280;37112;45.892;-123.962;2023-02-28T06:13:47;99425.05;;;5.33;88.06
51067;BME280;37112;45.892;-123.962;2023-02-28T06:16:03;99431.48;;;5.36;88.56
51067;BME280;37112;45.892;-123.962;2023-02-28T06:18:18;99444.10;;;5.40;88.45
51067;BME280;37112;45.892;-123.962;2023-02-28T06:20:32;99450.52;;;5.39;88.01
51067;BME280;37112;45.892;-123.962;2023-02-28T06:22:47;99450.86;;;5.36;87.46
51067;BME280;37112;45.892;-123.962;2023-02-28T06:25:03;99450.86;;;5.36;88.03
51067;BME280;37112;45.892;-123.962;2023-02-28T06:27:20;99457.20;;;5.36;87.90
51067;BME280;37112;45.892;-123.962;2023-02-28T06:29:34;99459.45;;;5.34;87.47
51067;BME280;37112;45.892;-123.962;2023-02-28T06:31:50;99458.92;;;5.31;87.20
51067;BME280;37112;45.892;-123.962;2023-02-28T06:34:04;99466.26;;;5.33;87.40
51067;BME280;37112;45.892;-123.962;2023-02-28T06:36:18;99469.92;;;5.33;87.38
51067;BME280;37112;45.892;-123.962;2023-02-28T06:38:31;99471.24;;;5.34;87.45
51067;BME280;37112;45.892;-123.962;2023-02-28T06:40:48;99477.67;;;5.35;87.35
51067;BME280;37112;45.892;-123.962;2023-02-28T06:43:05;99486.73;;;5.37;87.04
51067;BME280;37112;45.892;-123.962;2023-02-28T06:45:18;99485.59;;;5.38;86.88
51067;BME280;37112;45.892;-123.962;2023-02-28T06:47:33;99489.41;;;5.39;86.65
51067;BME280;37112;45.892;-123.962;2023-02-28T06:49:46;99495.73;;;5.39;86.46
51067;BME280;37112;45.892;-123.962;2023-02-28T06:51:59;99499.20;;;5.40;86.45
51067;BME280;37112;45.892;-123.962;2023-02-28T06:54:13;99501.58;;;5.41;86.52
51067;BME280;37112;45.892;-123.962;2023-02-28T06:56:27;99509.55;;;5.43;86.60
51067;BME280;37112;45.892;-123.962;2023-02-28T06:58:40;99515.89;;;5.46;86.58
51067;BME280;37112;45.892;-123.962;2023-02-28T07:00:55;99519.48;;;5.47;86.44
51067;BME280;37112;45.892;-123.962;2023-02-28T07:03:09;99526.98;;;5.46;86.54
51067;BME280;37112;45.892;-123.962;2023-02-28T07:05:22;99533.02;;;5.42;86.33
51067;BME280;37112;45.892;-123.962;2023-02-28T07:07:35;99535.89;;;5.39;86.72
51067;BME280;37112;45.892;-123.962;2023-02-28T07:09:51;99543.52;;;5.35;86.96
51067;BME280;37112;45.892;-123.962;2023-02-28T07:12:04;99547.84;;;5.31;86.91
51067;BME280;37112;45.892;-123.962;2023-02-28T07:14:18;99560.92;;;5.24;86.68
51067;BME280;37112;45.892;-123.962;2023-02-28T07:16:32;99566.64;;;5.12;86.50
51067;BME280;37112;45.892;-123.962;2023-02-28T07:18:46;99563.43;;;5.04;86.70
51067;BME280;37112;45.892;-123.962;2023-02-28T07:21:01;99570.52;;;5.01;87.57
51067;BME280;37112;45.892;-123.962;2023-02-28T07:23:14;99575.49;;;5.00;87.94
51067;BME280;37112;45.892;-123.962;2023-02-28T07:25:30;99580.55;;;5.01;87.34
51067;BME280;37112;45.892;-123.962;2023-02-28T07:27:44;99587.41;;;4.98;87.12
51067;BME280;37112;45.892;-123.962;2023-02-28T07:29:57;99588.64;;;4.98;87.34
51067;BME280;37112;45.892;-123.962;2023-02-28T07:32:12;99588.58;;;4.99;86.70
51067;BME280;37112;45.892;-123.962;2023-02-28T07:34:25;99596.33;;;4.99;86.36
51067;BME280;37112;45.892;-123.962;2023-02-28T07:36:39;99595.98;;;5.01;86.53
51067;BME280;37112;45.892;-123.962;2023-02-28T07:38:53;99605.58;;;5.06;86.83
51067;BME280;37112;45.892;-123.962;2023-02-28T07:41:06;99610.04;;;5.04;86.26
51067;BME280;37112;45.892;-123.962;2023-02-28T07:43:20;99621.05;;;5.00;85.30
51067;BME280;37112;45.892;-123.962;2023-02-28T07:45:33;99620.91;;;4.94;84.78
51067;BME280;37112;45.892;-123.962;2023-02-28T07:47:48;99629.00;;;4.94;85.57
51067;BME280;37112;45.892;-123.962;2023-02-28T07:50:01;99633.25;;;4.93;85.43
51067;BME280;37112;45.892;-123.962;2023-02-28T07:52:15;99631.98;;;4.88;84.96
51067;BME280;37112;45.892;-123.962;2023-02-28T07:54:28;99641.67;;;4.85;85.86
51067;BME280;37112;45.892;-123.962;2023-02-28T07:56:41;99654.28;;;4.86;85.98
51067;BME280;37112;45.892;-123.962;2023-02-28T07:58:54;99655.86;;;4.84;85.79
51067;BME280;37112;45.892;-123.962;2023-02-28T08:01:12;99655.55;;;4.83;86.23
51067;BME280;37112;45.892;-123.962;2023-02-28T08:03:26;99657.98;;;4.84;86.50
51067;BME280;37112;45.892;-123.962;2023-02-28T08:05:42;99653.39;;;4.81;86.39
51067;BME280;37112;45.892;-123.962;2023-02-28T08:07:55;99668.66;;;4.78;86.60
51067;BME280;37112;45.892;-123.962;2023-02-28T08:10:13;99675.59;;;4.77;87.24
51067;BME280;37112;45.892;-123.962;2023-02-28T08:12:26;99682.91;;;4.75;87.18
51067;BME280;37112;45.892;-123.962;2023-02-28T08:14:39;99687.80;;;4.70;86.51
51067;BME280;37112;45.892;-123.962;2023-02-28T08:16:54;99692.93;;;4.66;86.23
51067;BME280;37112;45.892;-123.962;2023-02-28T08:19:07;99703.16;;;4.66;86.79
51067;BME280;37112;45.892;-123.962;2023-02-28T08:21:20;99707.77;;;4.62;86.92
51067;BME280;37112;45.892;-123.962;2023-02-28T08:23:34;99704.21;;;4.57;86.84
51067;BME280;37112;45.892;-123.962;2023-02-28T08:25:52;99706.69;;;4.54;87.22
51067;BME280;37112;45.892;-123.962;2023-02-28T08:28:05;99710.95;;;4.56;87.54
51067;BME280;37112;45.892;-123.962;2023-02-28T08:30:19;99719.58;;;4.59;87.50
51067;BME280;37112;45.892;-123.962;2023-02-28T08:32:32;99725.23;;;4.61;87.48
51067;BME280;37112;45.892;-123.962;2023-02-28T08:34:45;99731.73;;;4.64;86.99
51067;BME280;37112;45.892;-123.962;2023-02-28T08:36:59;99734.24;;;4.64;86.41
51067;BME280;37112;45.892;-123.962;2023-02-28T08:39:13;99736.38;;;4.63;86.40
51067;BME280;37112;45.892;-123.962;2023-02-28T08:41:26;99745.12;;;4.64;86.92
51067;BME280;37112;45.892;-123.962;2023-02-28T08:43:39;99756.56;;;4.61;86.56
51067;BME280;37112;45.892;-123.962;2023-02-28T08:45:56;99748.45;;;4.49;84.83
51067;BME280;37112;45.892;-123.962;2023-02-28T08:48:09;99747.52;;;4.38;85.68
51067;BME280;37112;45.892;-123.962;2023-02-28T08:50:25;99751.34;;;4.35;86.27
51067;BME280;37112;45.892;-123.962;2023-02-28T08:52:38;99751.92;;;4.35;86.54
51067;BME280;37112;45.892;-123.962;2023-02-28T08:54:52;99756.09;;;4.35;86.77
51067;BME280;37112;45.892;-123.962;2023-02-28T08:57:05;99760.29;;;4.39;87.27
51067;BME280;37112;45.892;-123.962;2023-02-28T08:59:18;99752.65;;;4.43;87.41
51067;BME280;37112;45.892;-123.962;2023-02-28T09:01:32;99756.16;;;4.47;87.09
51067;BME280;37112;45.892;-123.962;2023-02-28T09:03:45;99756.13;;;4.50;86.79
51067;BME280;37112;45.892;-123.962;2023-02-28T09:06:00;99768.46;;;4.56;86.90
51067;BME280;37112;45.892;-123.962;2023-02-28T09:08:13;99776.31;;;4.60;87.52
51067;BME280;37112;45.892;-123.962;2023-02-28T09:10:27;99775.75;;;4.60;87.59
51067;BME280;37112;45.892;-123.962;2023-02-28T09:12:40;99779.38;;;4.58;87.10
51067;BME280;37112;45.892;-123.962;2023-02-28T09:14:56;99778.02;;;4.57;87.48
51067;BME280;37112;45.892;-123.962;2023-02-28T09:17:09;99774.34;;;4.57;87.66
51067;BME280;37112;45.892;-123.962;2023-02-28T09:19:22;99772.53;;;4.58;88.33
51067;BME280;37112;45.892;-123.962;2023-02-28T09:21:35;99787.90;;;4.60;88.33
51067;BME280;37112;45.892;-123.962;2023-02-28T09:23:50;99806.95;;;4.56;86.83
51067;BME280;37112;45.892;-123.962;2023-02-28T09:26:03;99811.98;;;4.41;85.87
51067;BME280;37112;45.892;-123.962;2023-02-28T09:28:16;99823.20;;;4.33;86.11
51067;BME280;37112;45.892;-123.962;2023-02-28T09:30:30;99831.29;;;4.30;86.70
51067;BME280;37112;45.892;-123.962;2023-02-28T09:32:43;99840.32;;;4.25;85.72
51067;BME280;37112;45.892;-123.962;2023-02-28T09:35:02;99848.61;;;4.18;85.17
51067;BME280;37112;45.892;-123.962;2023-02-28T09:37:15;99841.86;;;4.13;85.32
51067;BME280;37112;45.892;-123.962;2023-02-28T09:39:29;99845.98;;;4.15;85.84
51067;BME280;37112;45.892;-123.962;2023-02-28T09:41:44;99849.44;;;4.19;86.41
51067;BME280;37112;45.892;-123.962;2023-02-28T09:44:02;99849.92;;;4.23;86.51
51067;BME280;37112;45.892;-123.962;2023-02-28T09:46:32;99845.82;;;4.28;86.63
51067;BME280;37112;45.892;-123.962;2023-02-28T09:48:49;99851.06;;;4.31;86.39
51067;BME280;37112;45.892;-123.962;2023-02-28T09:51:08;99854.73;;;4.32;85.48
51067;BME280;37112;45.892;-123.962;2023-02-28T09:53:28;99857.02;;;4.32;85.12
51067;BME280;37112;45.892;-123.962;2023-02-28T09:55:47;99853.09;;;4.33;85.08
51067;BME280;37112;45.892;-123.962;2023-02-28T09:58:03;99852.78;;;4.35;84.93
51067;BME280;37112;45.892;-123.962;2023-02-28T10:00:21;99855.55;;;4.36;84.80
51067;BME280;37112;45.892;-123.962;2023-02-28T10:02:58;99857.36;;;4.38;84.64
51067;BME280;37112;45.892;-123.962;2023-02-28T10:05:17;99854.59;;;4.40;84.29
51067;BME280;37112;45.892;-123.962;2023-02-28T10:07:45;99858.44;;;4.41;83.55
51067;BME280;37112;45.892;-123.962;2023-02-28T10:10:04;99858.55;;;4.42;83.50
51067;BME280;37112;45.892;-123.962;2023-02-28T10:12:22;99859.85;;;4.43;83.86
51067;BME280;37112;45.892;-123.962;2023-02-28T10:14:38;99861.44;;;4.47;83.77
51067;BME280;37112;45.892;-123.962;2023-02-28T10:16:55;99862.88;;;4.49;83.83
51067;BME280;37112;45.892;-123.962;2023-02-28T10:19:14;99863.81;;;4.52;83.96
51067;BME280;37112;45.892;-123.962;2023-02-28T10:21:34;99865.44;;;4.54;83.71
51067;BME280;37112;45.892;-123.962;2023-02-28T10:23:49;99861.03;;;4.54;83.51
51067;BME280;37112;45.892;-123.962;2023-02-28T10:26:05;99867.66;;;4.55;83.15
51067;BME280;37112;45.892;-123.962;2023-02-28T10:28:24;99866.38;;;4.56;83.10
51067;BME280;37112;45.892;-123.962;2023-02-28T10:30:40;99862.29;;;4.57;82.83
51067;BME280;37112;45.892;-123.962;2023-02-28T10:32:55;99862.60;;;4.57;82.57
51067;BME280;37112;45.892;-123.962;2023-02-28T10:35:17;99865.69;;;4.59;82.58
51067;BME280;37112;45.892;-123.962;2023-02-28T10:37:31;99861.95;;;4.60;82.06
51067;BME280;37112;45.892;-123.962;2023-02-28T10:39:49;99858.74;;;4.60;81.45
51067;BME280;37112;45.892;-123.962;2023-02-28T10:42:02;99859.02;;;4.62;80.82
51067;BME280;37112;45.892;-123.962;2023-02-28T10:44:23;99855.77;;;4.63;80.42
51067;BME280;37112;45.892;-123.962;2023-02-28T10:46:36;99856.48;;;4.66;80.45
51067;BME280;37112;45.892;-123.962;2023-02-28T10:49:02;99858.05;;;4.66;79.78
51067;BME280;37112;45.892;-123.962;2023-02-28T10:51:18;99853.79;;;4.67;79.75
51067;BME280;37112;45.892;-123.962;2023-02-28T10:53:37;99850.06;;;4.68;79.56
51067;BME280;37112;45.892;-123.962;2023-02-28T10:56:17;99843.20;;;4.68;79.44
51067;BME280;37112;45.892;-123.962;2023-02-28T10:58:42;99842.63;;;4.68;79.59
51067;BME280;37112;45.892;-123.962;2023-02-28T11:01:01;99834.80;;;4.70;79.62
51067;BME280;37112;45.892;-123.962;2023-02-28T11:03:28;99834.14;;;4.69;79.28
51067;BME280;37112;45.892;-123.962;2023-02-28T11:05:46;99829.84;;;4.70;79.45
51067;BME280;37112;45.892;-123.962;2023-02-28T11:08:02;99836.34;;;4.70;79.38
51067;BME280;37112;45.892;-123.962;2023-02-28T11:10:23;99836.86;;;4.71;79.39
51067;BME280;37112;45.892;-123.962;2023-02-28T11:12:39;99844.52;;;4.72;79.54
51067;BME280;37112;45.892;-123.962;2023-02-28T11:15:03;99848.05;;;4.72;79.15
51067;BME280;37112;45.892;-123.962;2023-02-28T11:17:22;99850.33;;;4.72;78.92
51067;BME280;37112;45.892;-123.962;2023-02-28T11:19:38;99846.05;;;4.73;78.69
51067;BME280;37112;45.892;-123.962;2023-02-28T11:21:56;99845.42;;;4.74;78.41
51067;BME280;37112;45.892;-123.962;2023-02-28T11:24:19;99847.00;;;4.75;78.16
51067;BME280;37112;45.892;-123.962;2023-02-28T11:26:44;99844.50;;;4.76;78.13
51067;BME280;37112;45.892;-123.962;2023-02-28T11:29:08;99839.16;;;4.77;77.88
51067;BME280;37112;45.892;-123.962;2023-02-28T11:31:22;99837.87;;;4.78;78.26
51067;BME280;37112;45.892;-123.962;2023-02-28T11:33:45;99832.14;;;4.80;78.32
51067;BME280;37112;45.892;-123.962;2023-02-28T11:36:03;99830.58;;;4.82;78.37
51067;BME280;37112;45.892;-123.962;2023-02-28T11:38:21;99825.02;;;4.84;78.06
51067;BME280;37112;45.892;-123.962;2023-02-28T11:40:39;99819.60;;;4.84;77.05
51067;BME280;37112;45.892;-123.962;2023-02-28T11:43:04;99814.86;;;4.84;77.47
51067;BME280;37112;45.892;-123.962;2023-02-28T11:45:40;99812.60;;;4.83;77.32
51067;BME280;37112;45.892;-123.962;2023-02-28T11:48:04;99810.45;;;4.81;77.13
51067;BME280;37112;45.892;-123.962;2023-02-28T11:50:45;99808.00;;;4.77;76.52
51067;BME280;37112;45.892;-123.962;2023-02-28T11:53:04;99807.93;;;4.75;76.47